Hachinohemaru — JE3089 — position and weather

sailwx.info

Track history (hours):
 
Tides and Currents Weather Stations Pressure Air Temp Water Temp Dewpoint Dewpoint Depression Visibility Wind Speed Wind Dir Waves Ship Positions

Hachinohemaru

Last reported at 2014-Aug-18 21:07 UTC. Time now 2014-Aug-20 08:51 UTC.
Position N 36°40' E 141°02'.

Length 168 m; draft 6.5 m.

Type: Cargo ship. MMSI: 431700018.

Date/timePositionNaut miles runAvg speedWind from/ knotsBaromVisibWave heightAir tempDewpointWater temp
2014-Aug-18 21:07N 36°40' E 141°02'3613.5
2014-Aug-18 18:28N 36°06' E 140°48'1212.9
2014-Aug-18 17:34N 35°56' E 140°42'0 0.0
2014-Aug-18 05:05N 35°56' E 140°41'3 6.1
2014-Aug-18 04:33N 35°59' E 140°43'  
2014-Aug-15 17:32N 35°56' E 140°42'1 0.1
2014-Aug-15 03:22N 35°55' E 140°41'4 2.4
2014-Aug-15 01:33N 35°58' E 140°45'0 0.0
2014-Aug-15 00:30N 35°58' E 140°45'0 0.0
2014-Aug-14 23:18N 35°58' E 140°45'0 0.1
2014-Aug-14 22:24N 35°58' E 140°45'3 3.4
2014-Aug-14 21:33N 35°56' E 140°48'1412.8
2014-Aug-14 20:26N 35°44' E 140°58'1212.2
2014-Aug-14 19:29N 35°33' E 140°54'1314.0
2014-Aug-14 18:32N 35°22' E 140°46'1815.1
2014-Aug-14 17:20N 35°07' E 140°33'1316.2
2014-Aug-14 16:32N 34°59' E 140°20'1414.5
2014-Aug-14 15:33N 34°51' E 140°06'1512.9
2014-Aug-14 14:23N 34°44' E 139°50'  
2014-Aug-11 01:31N 34°55' E 139°25'1313.1
2014-Aug-11 00:33N 34°60' E 139°40'9 8.5
2014-Aug-10 23:33N 35°01' E 139°50'0 0.0
2014-Aug-10 22:33N 35°01' E 139°50'0 0.0
2014-Aug-10 21:32N 35°01' E 139°50'0 0.0
2014-Aug-10 20:33N 35°01' E 139°50'0 0.0
2014-Aug-10 19:33N 35°01' E 139°50'0 0.0
2014-Aug-10 18:32N 35°01' E 139°50'0 0.0
2014-Aug-10 17:31N 35°01' E 139°50'0 0.0
2014-Aug-10 16:33N 35°01' E 139°50'0 0.0
2014-Aug-10 15:31N 35°01' E 139°50'0 0.0
2014-Aug-10 14:33N 35°01' E 139°50'0 0.0
2014-Aug-10 13:32N 35°01' E 139°50'0 0.0
2014-Aug-10 12:32N 35°01' E 139°50'0 0.0
2014-Aug-10 11:30N 35°01' E 139°50'0 0.0
2014-Aug-10 10:32N 35°01' E 139°50'0 0.0
2014-Aug-10 09:32N 35°01' E 139°50'0 0.0
2014-Aug-10 08:33N 35°01' E 139°50'0 0.0
2014-Aug-10 07:33N 35°01' E 139°50'0 0.0
2014-Aug-10 06:32N 35°01' E 139°50'0 0.1
2014-Aug-10 05:33N 35°01' E 139°50'0 0.0
2014-Aug-10 04:33N 35°01' E 139°50'0 0.0
2014-Aug-10 03:33N 35°01' E 139°50'0 0.0
2014-Aug-10 02:30N 35°01' E 139°50'0 0.0
2014-Aug-10 01:33N 35°01' E 139°50'0 0.0
2014-Aug-10 00:19N 35°01' E 139°50'0 0.1
2014-Aug-09 23:31N 35°01' E 139°50'0 0.0
2014-Aug-09 22:20N 35°01' E 139°50'0 0.2
2014-Aug-09 21:32N 35°01' E 139°50'0 0.1
2014-Aug-09 20:32N 35°01' E 139°50'0 0.0
2014-Aug-09 19:29N 35°01' E 139°50'0 0.0
2014-Aug-09 18:26N 35°01' E 139°50'0 0.0
2014-Aug-09 17:32N 35°01' E 139°50'0 0.1
2014-Aug-09 16:08N 35°01' E 139°50'0 0.0
2014-Aug-09 15:32N 35°01' E 139°50'0 0.1
2014-Aug-09 14:32N 35°01' E 139°50'0 0.0
2014-Aug-09 12:08N 35°01' E 139°50'0 0.0
2014-Aug-09 11:28N 35°01' E 139°50'0 0.0
2014-Aug-09 10:16N 35°01' E 139°50'0 0.0
2014-Aug-09 09:22N 35°01' E 139°50'0 0.0
2014-Aug-09 08:22N 35°01' E 139°50'0 0.0
2014-Aug-09 07:28N 35°01' E 139°50'0 0.0
2014-Aug-09 06:28N 35°01' E 139°50'0 0.0
2014-Aug-09 05:28N 35°01' E 139°50'0 0.0
2014-Aug-09 04:22N 35°01' E 139°50'0 0.0
2014-Aug-09 03:28N 35°01' E 139°50'0 0.0
2014-Aug-09 01:10N 35°01' E 139°50'0 0.0
2014-Aug-09 00:22N 35°01' E 139°50'0 0.1
2014-Aug-08 23:19N 35°01' E 139°50'0 0.1
2014-Aug-08 22:25N 35°01' E 139°50'0 0.0
2014-Aug-08 21:19N 35°01' E 139°50'  
Track history (hours):
 
Tides and Currents Weather Stations Pressure Air Temp Water Temp Dewpoint Dewpoint Depression Visibility Wind Speed Wind Dir Waves Ship Positions

Hachinohemaru

Last reported at 2014-Aug-18 21:07 UTC. Time now 2014-Aug-20 08:51 UTC.
Position N 36°40' E 141°02'.

Length 168 m; draft 6.5 m.

Type: Cargo ship. MMSI: 431700018.

Date/timePositionNaut miles runAvg speedWind from/ knotsBaromVisibWave heightAir tempDewpointWater temp
2014-Aug-18 21:07N 36°40' E 141°02'3613.5
2014-Aug-18 18:28N 36°06' E 140°48'1212.9
2014-Aug-18 17:34N 35°56' E 140°42'0 0.0
2014-Aug-18 05:05N 35°56' E 140°41'3 6.1
2014-Aug-18 04:33N 35°59' E 140°43'  
2014-Aug-15 17:32N 35°56' E 140°42'1 0.1
2014-Aug-15 03:22N 35°55' E 140°41'4 2.4
2014-Aug-15 01:33N 35°58' E 140°45'0 0.0
2014-Aug-15 00:30N 35°58' E 140°45'0 0.0
2014-Aug-14 23:18N 35°58' E 140°45'0 0.1
2014-Aug-14 22:24N 35°58' E 140°45'3 3.4
2014-Aug-14 21:33N 35°56' E 140°48'1412.8
2014-Aug-14 20:26N 35°44' E 140°58'1212.2
2014-Aug-14 19:29N 35°33' E 140°54'1314.0
2014-Aug-14 18:32N 35°22' E 140°46'1815.1
2014-Aug-14 17:20N 35°07' E 140°33'1316.2
2014-Aug-14 16:32N 34°59' E 140°20'1414.5
2014-Aug-14 15:33N 34°51' E 140°06'1512.9
2014-Aug-14 14:23N 34°44' E 139°50'  
2014-Aug-11 01:31N 34°55' E 139°25'1313.1
2014-Aug-11 00:33N 34°60' E 139°40'9 8.5
2014-Aug-10 23:33N 35°01' E 139°50'0 0.0
2014-Aug-10 22:33N 35°01' E 139°50'0 0.0
2014-Aug-10 21:32N 35°01' E 139°50'0 0.0
2014-Aug-10 20:33N 35°01' E 139°50'0 0.0
2014-Aug-10 19:33N 35°01' E 139°50'0 0.0
2014-Aug-10 18:32N 35°01' E 139°50'0 0.0
2014-Aug-10 17:31N 35°01' E 139°50'0 0.0
2014-Aug-10 16:33N 35°01' E 139°50'0 0.0
2014-Aug-10 15:31N 35°01' E 139°50'0 0.0
2014-Aug-10 14:33N 35°01' E 139°50'0 0.0
2014-Aug-10 13:32N 35°01' E 139°50'0 0.0
2014-Aug-10 12:32N 35°01' E 139°50'0 0.0
2014-Aug-10 11:30N 35°01' E 139°50'0 0.0
2014-Aug-10 10:32N 35°01' E 139°50'0 0.0
2014-Aug-10 09:32N 35°01' E 139°50'0 0.0
2014-Aug-10 08:33N 35°01' E 139°50'0 0.0
2014-Aug-10 07:33N 35°01' E 139°50'0 0.0
2014-Aug-10 06:32N 35°01' E 139°50'0 0.1
2014-Aug-10 05:33N 35°01' E 139°50'0 0.0
2014-Aug-10 04:33N 35°01' E 139°50'0 0.0
2014-Aug-10 03:33N 35°01' E 139°50'0 0.0
2014-Aug-10 02:30N 35°01' E 139°50'0 0.0
2014-Aug-10 01:33N 35°01' E 139°50'0 0.0
2014-Aug-10 00:19N 35°01' E 139°50'0 0.1
2014-Aug-09 23:31N 35°01' E 139°50'0 0.0
2014-Aug-09 22:20N 35°01' E 139°50'0 0.2
2014-Aug-09 21:32N 35°01' E 139°50'0 0.1
2014-Aug-09 20:32N 35°01' E 139°50'0 0.0
2014-Aug-09 19:29N 35°01' E 139°50'0 0.0
2014-Aug-09 18:26N 35°01' E 139°50'0 0.0
2014-Aug-09 17:32N 35°01' E 139°50'0 0.1
2014-Aug-09 16:08N 35°01' E 139°50'0 0.0
2014-Aug-09 15:32N 35°01' E 139°50'0 0.1
2014-Aug-09 14:32N 35°01' E 139°50'0 0.0
2014-Aug-09 12:08N 35°01' E 139°50'0 0.0
2014-Aug-09 11:28N 35°01' E 139°50'0 0.0
2014-Aug-09 10:16N 35°01' E 139°50'0 0.0
2014-Aug-09 09:22N 35°01' E 139°50'0 0.0
2014-Aug-09 08:22N 35°01' E 139°50'0 0.0
2014-Aug-09 07:28N 35°01' E 139°50'0 0.0
2014-Aug-09 06:28N 35°01' E 139°50'0 0.0
2014-Aug-09 05:28N 35°01' E 139°50'0 0.0
2014-Aug-09 04:22N 35°01' E 139°50'0 0.0
2014-Aug-09 03:28N 35°01' E 139°50'0 0.0
2014-Aug-09 01:10N 35°01' E 139°50'0 0.0
2014-Aug-09 00:22N 35°01' E 139°50'0 0.1
2014-Aug-08 23:19N 35°01' E 139°50'0 0.1
2014-Aug-08 22:25N 35°01' E 139°50'0 0.0
2014-Aug-08 21:19N 35°01' E 139°50'  

Dump ship's entire track history